Time;durP1;ratioP1;P1;durP2;ratioP2;P2;SDS_P1;SDS_P2;PMS_P1;PMS_P2;Temp;Humidity;BMP_temperature;BMP_pressure;BME280_temperature;BME280_humidity;BME280_pressure;Samples;Min_cycle;Max_cycle;Signal;HPM_P1;HPM_P2
2022/03/15 00:00:15;;;;;;;13.70;7.07;;;;;;;;;;5047959;28;20153;-68
2022/03/15 00:02:41;;;;;;;18.25;7.60;;;;;;;;;;5066104;28;20110;-67
2022/03/15 00:05:07;;;;;;;19.95;7.28;;;;;;;;;;5047766;28;20083;-67
2022/03/15 00:07:33;;;;;;;16.55;6.88;;;;;;;;;;5046999;28;20032;-67
2022/03/15 00:10:00;;;;;;;15.30;6.80;;;;;;;;;;5066126;28;20105;-67
2022/03/15 00:12:28;;;;;;;19.55;8.27;;;;;;;;;;5066042;28;20041;-67
2022/03/15 00:14:55;;;;;;;17.38;8.55;;;;;;;;;;5066006;28;20496;-67
2022/03/15 00:17:22;;;;;;;17.00;7.97;;;;;;;;;;5047258;28;20126;-67
2022/03/15 00:19:48;;;;;;;16.80;7.70;;;;;;;;;;5047998;28;20250;-67
2022/03/15 00:22:14;;;;;;;14.90;7.93;;;;;;;;;;5047324;28;20075;-67
2022/03/15 00:24:42;;;;;;;15.90;7.60;;;;;;;;;;5065638;28;20144;-67
2022/03/15 00:27:10;;;;;;;18.13;7.68;;;;;;;;;;5065724;28;20036;-67
2022/03/15 00:29:38;;;;;;;16.30;7.40;;;;;;;;;;5047655;28;20072;-67
2022/03/15 00:32:05;;;;;;;14.30;7.03;;;;;;;;;;5048195;28;20432;-67
2022/03/15 00:34:31;;;;;;;15.18;6.25;;;;;;;;;;5065585;28;20044;-67
2022/03/15 00:36:57;;;;;;;13.55;6.88;;;;;;;;;;5065609;28;20032;-67
2022/03/15 00:39:23;;;;;;;20.45;8.15;;;;;;;;;;5065625;28;20047;-67
2022/03/15 00:41:49;;;;;;;15.15;7.57;;;;;;;;;;5045264;28;20405;-67
2022/03/15 00:44:15;;;;;;;18.13;8.45;;;;;;;;;;5046132;28;20072;-67
2022/03/15 00:46:41;;;;;;;19.77;9.18;;;;;;;;;;5045409;28;20041;-67
2022/03/15 00:49:07;;;;;;;25.77;10.63;;;;;;;;;;5042983;28;20045;-67
2022/03/15 00:51:34;;;;;;;26.00;11.32;;;;;;;;;;5017391;28;20172;-67
2022/03/15 00:54:00;;;;;;;26.52;10.73;;;;;;;;;;5046663;28;20036;-67
2022/03/15 00:56:26;;;;;;;22.17;10.00;;;;;;;;;;5044950;28;20032;-67
2022/03/15 00:58:52;;;;;;;26.55;11.82;;;;;;;;;;5038798;28;20110;-67
2022/03/15 01:01:18;;;;;;;26.45;10.43;;;;;;;;;;5044853;28;20076;-67
2022/03/15 01:03:44;;;;;;;24.08;11.52;;;;;;;;;;5046576;28;20107;-67
2022/03/15 01:06:10;;;;;;;21.80;11.20;;;;;;;;;;5041514;28;20036;-67
2022/03/15 01:08:36;;;;;;;25.98;12.15;;;;;;;;;;5037121;28;20394;-67
2022/03/15 01:11:06;;;;;;;23.55;10.77;;;;;;;;;;5042741;28;20095;-67
2022/03/15 01:13:32;;;;;;;26.08;12.00;;;;;;;;;;5046659;28;20095;-67
2022/03/15 01:15:59;;;;;;;22.25;11.20;;;;;;;;;;5042799;28;20048;-67
2022/03/15 01:18:25;;;;;;;22.73;11.15;;;;;;;;;;5038710;28;20029;-67
2022/03/15 01:20:51;;;;;;;22.67;9.77;;;;;;;;;;5038329;28;20095;-67
2022/03/15 01:23:18;;;;;;;21.02;10.23;;;;;;;;;;5040645;28;20128;-67
2022/03/15 01:25:44;;;;;;;19.30;10.00;;;;;;;;;;5046971;28;20087;-67
2022/03/15 01:28:11;;;;;;;18.48;9.52;;;;;;;;;;5041177;28;20523;-67
2022/03/15 01:30:37;;;;;;;20.90;10.23;;;;;;;;;;5027163;28;20068;-67
2022/03/15 01:33:03;;;;;;;17.63;9.73;;;;;;;;;;5042782;28;20040;-67
2022/03/15 01:35:29;;;;;;;17.05;9.35;;;;;;;;;;5037889;28;20044;-67
2022/03/15 01:37:55;;;;;;;18.23;8.52;;;;;;;;;;5044086;28;20139;-67
2022/03/15 01:40:21;;;;;;;18.42;8.20;;;;;;;;;;5037012;28;20474;-67
2022/03/15 01:42:47;;;;;;;19.88;8.73;;;;;;;;;;5048807;28;20052;-67
2022/03/15 01:45:13;;;;;;;14.93;7.93;;;;;;;;;;5049774;28;20131;-67
2022/03/15 01:47:42;;;;;;;19.58;8.35;;;;;;;;;;5050474;28;20123;-67
2022/03/15 01:50:09;;;;;;;17.40;8.38;;;;;;;;;;5068257;28;20052;-67
2022/03/15 01:52:35;;;;;;;18.73;9.38;;;;;;;;;;5065956;28;20127;-67
2022/03/15 01:55:01;;;;;;;18.13;8.82;;;;;;;;;;5031886;28;20048;-68
2022/03/15 01:57:27;;;;;;;20.50;8.80;;;;;;;;;;5066228;28;20049;-67
2022/03/15 01:59:53;;;;;;;14.95;8.27;;;;;;;;;;5049679;28;20079;-67
2022/03/15 02:02:19;;;;;;;17.27;8.00;;;;;;;;;;5049620;28;20041;-67
2022/03/15 02:04:45;;;;;;;21.25;8.80;;;;;;;;;;5067343;28;20385;-67
2022/03/15 02:07:13;;;;;;;17.08;9.13;;;;;;;;;;5049361;28;20413;-67
2022/03/15 02:09:40;;;;;;;13.90;7.82;;;;;;;;;;5065452;28;20066;-67
2022/03/15 02:12:06;;;;;;;14.88;8.70;;;;;;;;;;5065613;28;20517;-69
2022/03/15 02:14:32;;;;;;;21.55;9.10;;;;;;;;;;5065992;28;20040;-67
2022/03/15 02:16:58;;;;;;;15.85;8.43;;;;;;;;;;5066466;28;20043;-67
2022/03/15 02:19:27;;;;;;;19.02;8.77;;;;;;;;;;5048086;28;20047;-67
2022/03/15 02:21:53;;;;;;;16.45;8.90;;;;;;;;;;5064381;28;20080;-67
2022/03/15 02:24:19;;;;;;;17.42;9.10;;;;;;;;;;5064978;28;20519;-67
2022/03/15 02:26:45;;;;;;;18.67;8.38;;;;;;;;;;5065739;28;20150;-67
2022/03/15 02:29:12;;;;;;;16.15;8.55;;;;;;;;;;5064437;28;20135;-67
2022/03/15 02:31:38;;;;;;;17.45;8.80;;;;;;;;;;5047954;28;20485;-67
2022/03/15 02:34:04;;;;;;;19.48;9.52;;;;;;;;;;5066354;28;20488;-67
2022/03/15 02:36:30;;;;;;;20.45;9.48;;;;;;;;;;5047000;28;20056;-67
2022/03/15 02:38:56;;;;;;;15.25;9.32;;;;;;;;;;5047471;28;20130;-67
2022/03/15 02:41:22;;;;;;;21.52;10.13;;;;;;;;;;5048206;28;20048;-67
2022/03/15 02:43:48;;;;;;;17.45;9.32;;;;;;;;;;5047252;28;20041;-67
2022/03/15 02:46:15;;;;;;;20.35;10.15;;;;;;;;;;5048209;28;20036;-67
2022/03/15 02:48:42;;;;;;;18.55;9.55;;;;;;;;;;5048587;28;20123;-67
2022/03/15 02:51:10;;;;;;;17.05;9.27;;;;;;;;;;5064852;28;20052;-67
2022/03/15 02:53:37;;;;;;;18.13;10.25;;;;;;;;;;5046775;28;20048;-67
2022/03/15 02:56:04;;;;;;;24.77;10.73;;;;;;;;;;5047255;28;20044;-67
2022/03/15 02:58:31;;;;;;;18.23;9.75;;;;;;;;;;5065499;28;20032;-67
2022/03/15 03:00:58;;;;;;;24.88;12.30;;;;;;;;;;5065947;28;20041;-67
2022/03/15 03:03:25;;;;;;;19.25;10.52;;;;;;;;;;5045443;28;20048;-67
2022/03/15 03:05:51;;;;;;;17.33;9.82;;;;;;;;;;5063575;28;20109;-67
2022/03/15 03:08:17;;;;;;;22.83;10.07;;;;;;;;;;5048155;28;20094;-67
2022/03/15 03:10:43;;;;;;;19.17;10.20;;;;;;;;;;5047464;28;20185;-67
2022/03/15 03:13:11;;;;;;;18.90;9.35;;;;;;;;;;5066620;28;20044;-67
2022/03/15 03:15:37;;;;;;;23.00;10.43;;;;;;;;;;5045705;28;20056;-67
2022/03/15 03:18:03;;;;;;;20.10;10.63;;;;;;;;;;5048177;28;20124;-67
2022/03/15 03:20:29;;;;;;;17.38;10.40;;;;;;;;;;5066291;28;20040;-67
2022/03/15 03:22:57;;;;;;;20.92;10.05;;;;;;;;;;5066300;28;20045;-66
2022/03/15 03:25:25;;;;;;;17.23;9.15;;;;;;;;;;5046588;28;20072;-67
2022/03/15 03:27:51;;;;;;;19.63;9.82;;;;;;;;;;5047205;28;20480;-67
2022/03/15 03:30:17;;;;;;;19.95;9.35;;;;;;;;;;5047597;28;20040;-67
2022/03/15 03:32:43;;;;;;;21.52;10.43;;;;;;;;;;5065636;28;20037;-67
2022/03/15 03:35:09;;;;;;;21.02;10.30;;;;;;;;;;5065378;28;20044;-67
2022/03/15 03:37:35;;;;;;;19.65;9.07;;;;;;;;;;5046467;28;20051;-67
2022/03/15 03:40:07;;;;;;;15.95;10.07;;;;;;;;;;5065092;28;20046;-67
2022/03/15 03:42:33;;;;;;;12.27;8.60;;;;;;;;;;5046526;28;20135;-67
2022/03/15 03:44:59;;;;;;;17.33;9.65;;;;;;;;;;5047555;28;20095;-67
2022/03/15 03:47:25;;;;;;;22.67;12.90;;;;;;;;;;5065316;28;20033;-67
2022/03/15 03:49:51;;;;;;;17.92;10.88;;;;;;;;;;5046206;28;20338;-67
2022/03/15 03:52:18;;;;;;;21.75;11.60;;;;;;;;;;5047177;28;20047;-67
2022/03/15 03:54:44;;;;;;;23.77;13.00;;;;;;;;;;5066259;28;20085;-67
2022/03/15 03:57:11;;;;;;;20.13;13.00;;;;;;;;;;5048315;28;20072;-67
2022/03/15 03:59:37;;;;;;;22.30;12.52;;;;;;;;;;5048521;28;20048;-67
2022/03/15 04:02:04;;;;;;;26.40;13.02;;;;;;;;;;5063808;28;20131;-67
2022/03/15 04:04:30;;;;;;;19.15;12.20;;;;;;;;;;5065849;28;20033;-67
2022/03/15 04:06:56;;;;;;;22.02;12.20;;;;;;;;;;5063942;28;20037;-67
2022/03/15 04:09:23;;;;;;;28.73;14.23;;;;;;;;;;5046952;28;20051;-67
2022/03/15 04:11:49;;;;;;;24.30;13.80;;;;;;;;;;5065800;28;20056;-67
2022/03/15 04:14:16;;;;;;;23.80;11.93;;;;;;;;;;5047624;28;20044;-67
2022/03/15 04:16:42;;;;;;;24.42;12.32;;;;;;;;;;5048641;28;20404;-67
2022/03/15 04:19:09;;;;;;;24.17;11.75;;;;;;;;;;5050025;28;20044;-67
2022/03/15 04:21:36;;;;;;;25.73;11.82;;;;;;;;;;5048917;28;20045;-68
2022/03/15 04:24:03;;;;;;;23.75;12.68;;;;;;;;;;5049531;28;20045;-67
2022/03/15 04:26:29;;;;;;;22.85;12.40;;;;;;;;;;5067306;28;20032;-67
2022/03/15 04:28:55;;;;;;;24.10;12.50;;;;;;;;;;5067508;28;20040;-67
2022/03/15 04:31:22;;;;;;;23.35;12.40;;;;;;;;;;5068214;28;20108;-67
2022/03/15 04:33:48;;;;;;;17.42;10.82;;;;;;;;;;5067409;28;20134;-67
2022/03/15 04:36:14;;;;;;;24.95;13.43;;;;;;;;;;5068605;28;20400;-67
2022/03/15 04:38:41;;;;;;;29.23;14.70;;;;;;;;;;5049674;28;20094;-67
2022/03/15 04:41:07;;;;;;;20.63;12.95;;;;;;;;;;5067803;28;20119;-67
2022/03/15 04:43:33;;;;;;;20.02;13.30;;;;;;;;;;5067305;28;20049;-67
2022/03/15 04:45:59;;;;;;;22.48;13.45;;;;;;;;;;5032737;28;20063;-67
2022/03/15 04:48:25;;;;;;;23.08;13.10;;;;;;;;;;5067707;28;20043;-67
2022/03/15 04:50:51;;;;;;;22.27;14.43;;;;;;;;;;5067125;28;20037;-67
2022/03/15 04:53:18;;;;;;;21.80;12.98;;;;;;;;;;5033272;28;20186;-67
2022/03/15 04:55:45;;;;;;;28.63;14.25;;;;;;;;;;5050570;28;20546;-67
2022/03/15 04:58:11;;;;;;;21.98;13.85;;;;;;;;;;5068615;28;20040;-67
2022/03/15 05:00:37;;;;;;;23.20;14.43;;;;;;;;;;5050934;28;20369;-67
2022/03/15 05:03:03;;;;;;;23.67;14.27;;;;;;;;;;5068520;28;20505;-67
2022/03/15 05:05:29;;;;;;;25.65;15.63;;;;;;;;;;5049420;28;20063;-67
2022/03/15 05:07:56;;;;;;;26.20;13.82;;;;;;;;;;5048292;28;20068;-67
2022/03/15 05:13:07;;;;;;;24.85;15.18;;;;;;;;;;5067711;28;20732;-67
2022/03/15 05:15:33;;;;;;;25.52;14.98;;;;;;;;;;5066586;28;20484;-67
2022/03/15 05:18:01;;;;;;;25.70;16.00;;;;;;;;;;5049001;28;20064;-67
2022/03/15 05:20:29;;;;;;;30.40;17.10;;;;;;;;;;5066477;28;20043;-67
2022/03/15 05:22:56;;;;;;;32.80;18.20;;;;;;;;;;5065601;28;20051;-66
2022/03/15 05:25:22;;;;;;;33.05;18.27;;;;;;;;;;5048219;28;20044;-66
2022/03/15 05:27:48;;;;;;;36.92;19.42;;;;;;;;;;5067372;28;20040;-66
2022/03/15 05:30:14;;;;;;;34.33;20.00;;;;;;;;;;5048716;28;20076;-66
2022/03/15 05:32:40;;;;;;;30.73;20.48;;;;;;;;;;5032131;28;20102;-66
2022/03/15 05:35:06;;;;;;;34.45;20.05;;;;;;;;;;5048868;28;20047;-66
2022/03/15 05:37:32;;;;;;;29.80;19.92;;;;;;;;;;5067421;28;20038;-66
2022/03/15 05:39:59;;;;;;;37.78;21.13;;;;;;;;;;5048584;28;20048;-66
2022/03/15 05:42:26;;;;;;;40.00;21.10;;;;;;;;;;5065924;28;20053;-66
2022/03/15 05:44:52;;;;;;;39.67;21.90;;;;;;;;;;5066074;28;20110;-66
2022/03/15 05:47:18;;;;;;;38.15;22.27;;;;;;;;;;5066671;28;20044;-67
2022/03/15 05:49:44;;;;;;;40.25;23.40;;;;;;;;;;5066548;28;20044;-66
2022/03/15 05:52:11;;;;;;;39.08;23.45;;;;;;;;;;5048994;28;20135;-66
2022/03/15 05:54:37;;;;;;;43.75;23.33;;;;;;;;;;5048827;28;20534;-67
2022/03/15 05:57:03;;;;;;;37.13;24.08;;;;;;;;;;5067780;28;20516;-66
2022/03/15 05:59:29;;;;;;;40.25;24.38;;;;;;;;;;5067529;28;20085;-66
2022/03/15 06:01:55;;;;;;;47.25;24.52;;;;;;;;;;5048057;28;20036;-66
2022/03/15 06:04:24;;;;;;;39.80;24.40;;;;;;;;;;5066442;28;20051;-67
2022/03/15 06:06:51;;;;;;;43.40;25.40;;;;;;;;;;5066542;28;20405;-66
2022/03/15 06:09:17;;;;;;;41.08;24.58;;;;;;;;;;5048261;28;20068;-67
2022/03/15 06:11:44;;;;;;;41.85;23.38;;;;;;;;;;5065321;28;20485;-67
2022/03/15 06:14:10;;;;;;;43.33;23.63;;;;;;;;;;5048022;28;20144;-66
2022/03/15 06:16:36;;;;;;;45.03;24.45;;;;;;;;;;5066647;28;20040;-66
2022/03/15 06:19:02;;;;;;;46.03;24.33;;;;;;;;;;5064824;28;20036;-66
2022/03/15 06:21:28;;;;;;;43.03;24.80;;;;;;;;;;5047280;28;20033;-66
2022/03/15 06:23:54;;;;;;;44.13;24.63;;;;;;;;;;5046805;28;20377;-66
2022/03/15 06:26:21;;;;;;;45.38;24.45;;;;;;;;;;5063965;28;20489;-66
2022/03/15 06:28:47;;;;;;;42.60;24.55;;;;;;;;;;5047873;28;20040;-67
2022/03/15 06:31:16;;;;;;;47.65;26.00;;;;;;;;;;5048742;28;20044;-69
2022/03/15 06:33:42;;;;;;;42.03;24.70;;;;;;;;;;5065962;28;21383;-68
2022/03/15 06:36:11;;;;;;;41.65;24.13;;;;;;;;;;5066707;28;20461;-67
2022/03/15 06:38:40;;;;;;;45.20;24.70;;;;;;;;;;5064867;28;20386;-67
2022/03/15 06:41:06;;;;;;;43.13;24.45;;;;;;;;;;5049532;28;20075;-66
2022/03/15 06:43:32;;;;;;;39.10;23.52;;;;;;;;;;5066234;28;20060;-67
2022/03/15 06:45:58;;;;;;;42.80;23.88;;;;;;;;;;5066272;28;20044;-67
2022/03/15 06:48:24;;;;;;;43.30;24.77;;;;;;;;;;5065042;28;20200;-67
2022/03/15 06:50:52;;;;;;;42.30;24.67;;;;;;;;;;5065864;28;20036;-66
2022/03/15 06:53:18;;;;;;;46.08;25.50;;;;;;;;;;5047028;28;20052;-67
2022/03/15 06:55:44;;;;;;;41.85;26.35;;;;;;;;;;5048046;28;20076;-67
2022/03/15 06:58:10;;;;;;;47.85;25.73;;;;;;;;;;5066960;28;20542;-66
2022/03/15 07:00:36;;;;;;;40.15;22.73;;;;;;;;;;5064586;28;20075;-66
2022/03/15 07:03:02;;;;;;;41.78;23.85;;;;;;;;;;5047853;28;20174;-66
2022/03/15 07:05:29;;;;;;;40.25;23.98;;;;;;;;;;5048314;28;20055;-66
2022/03/15 07:07:55;;;;;;;42.70;25.05;;;;;;;;;;5066046;28;20044;-67
2022/03/15 07:10:21;;;;;;;44.15;24.85;;;;;;;;;;5047998;28;20028;-67
2022/03/15 07:12:47;;;;;;;38.92;23.60;;;;;;;;;;5066455;28;20036;-67
2022/03/15 07:15:14;;;;;;;36.63;23.27;;;;;;;;;;5047940;28;20751;-67
2022/03/15 07:17:49;;;;;;;39.58;25.00;;;;;;;;;;5031574;28;20040;-66
2022/03/15 07:20:15;;;;;;;45.60;24.85;;;;;;;;;;5063354;28;20178;-67
2022/03/15 07:22:41;;;;;;;40.50;23.75;;;;;;;;;;5066435;28;20048;-67
2022/03/15 07:25:08;;;;;;;45.72;25.98;;;;;;;;;;5066662;28;20055;-67
2022/03/15 07:27:34;;;;;;;39.85;25.90;;;;;;;;;;5065540;28;20048;-67
2022/03/15 07:30:00;;;;;;;44.05;26.10;;;;;;;;;;5047395;28;20056;-67
2022/03/15 07:32:26;;;;;;;41.80;24.65;;;;;;;;;;5065610;28;20845;-67
2022/03/15 07:34:52;;;;;;;44.05;24.77;;;;;;;;;;5045401;28;20060;-67
2022/03/15 07:37:18;;;;;;;47.00;25.65;;;;;;;;;;5047732;28;20053;-67
2022/03/15 07:39:45;;;;;;;39.85;24.85;;;;;;;;;;5065613;28;20346;-67
2022/03/15 07:42:11;;;;;;;40.28;25.50;;;;;;;;;;5065342;28;20607;-67
2022/03/15 07:44:37;;;;;;;41.47;23.98;;;;;;;;;;5065628;28;20068;-67
2022/03/15 07:47:04;;;;;;;37.08;22.73;;;;;;;;;;5064451;28;20043;-67
2022/03/15 07:49:30;;;;;;;43.25;25.02;;;;;;;;;;5064772;28;20040;-67
2022/03/15 07:51:56;;;;;;;39.50;25.33;;;;;;;;;;5069114;28;20040;-67
2022/03/15 07:54:22;;;;;;;40.78;23.83;;;;;;;;;;5045547;28;20095;-67
2022/03/15 07:56:50;;;;;;;37.35;22.67;;;;;;;;;;5049044;28;20476;-67
2022/03/15 07:59:16;;;;;;;38.80;25.45;;;;;;;;;;5070380;28;20048;-67
2022/03/15 08:01:42;;;;;;;38.35;24.10;;;;;;;;;;5051794;28;20071;-67
2022/03/15 08:04:08;;;;;;;36.15;25.00;;;;;;;;;;5052721;28;20040;-67
2022/03/15 08:06:35;;;;;;;41.85;24.77;;;;;;;;;;5070411;28;20036;-67
2022/03/15 08:09:02;;;;;;;43.80;24.75;;;;;;;;;;5069346;28;20462;-67
2022/03/15 08:11:28;;;;;;;42.45;25.52;;;;;;;;;;5051475;28;20032;-67
2022/03/15 08:13:54;;;;;;;34.25;23.27;;;;;;;;;;5069520;28;20102;-67
2022/03/15 08:16:23;;;;;;;35.42;24.58;;;;;;;;;;5069167;28;20765;-67
2022/03/15 08:18:50;;;;;;;37.80;24.60;;;;;;;;;;5068999;28;20139;-67
2022/03/15 08:21:17;;;;;;;37.20;22.88;;;;;;;;;;5051374;28;20049;-67
2022/03/15 08:23:43;;;;;;;35.25;23.88;;;;;;;;;;5069442;28;20040;-67
2022/03/15 08:26:09;;;;;;;38.05;25.35;;;;;;;;;;5069196;28;20089;-68
2022/03/15 08:28:36;;;;;;;44.25;25.52;;;;;;;;;;5068988;28;20048;-67
2022/03/15 08:31:02;;;;;;;37.80;23.95;;;;;;;;;;5069657;28;20047;-67
2022/03/15 08:33:28;;;;;;;38.55;22.73;;;;;;;;;;5065901;28;20037;-67
2022/03/15 08:35:54;;;;;;;39.20;24.45;;;;;;;;;;5031269;28;20175;-67
2022/03/15 08:38:20;;;;;;;38.05;25.15;;;;;;;;;;5065091;28;20408;-67
2022/03/15 08:40:46;;;;;;;35.25;24.05;;;;;;;;;;5049286;28;20478;-67
2022/03/15 08:43:12;;;;;;;36.58;23.85;;;;;;;;;;5048027;28;20049;-68
2022/03/15 08:45:39;;;;;;;38.72;25.58;;;;;;;;;;5046313;28;20173;-67
2022/03/15 08:48:06;;;;;;;35.92;22.73;;;;;;;;;;5066133;28;20122;-67
2022/03/15 08:50:32;;;;;;;37.40;23.67;;;;;;;;;;5067344;28;20178;-66
2022/03/15 08:52:58;;;;;;;30.65;21.88;;;;;;;;;;5065165;28;20052;-64
2022/03/15 08:55:26;;;;;;;36.22;25.00;;;;;;;;;;5047321;28;20481;-67
2022/03/15 08:57:52;;;;;;;30.58;22.58;;;;;;;;;;5066459;28;20091;-67
2022/03/15 09:00:18;;;;;;;36.30;23.45;;;;;;;;;;5064993;28;20477;-67
2022/03/15 09:02:45;;;;;;;35.72;23.20;;;;;;;;;;5066386;28;20048;-67
2022/03/15 09:05:11;;;;;;;38.58;24.08;;;;;;;;;;5049030;28;20037;-67
2022/03/15 09:07:39;;;;;;;32.03;22.75;;;;;;;;;;5067272;28;20036;-67
2022/03/15 09:10:05;;;;;;;34.20;21.10;;;;;;;;;;5048973;28;20423;-67
2022/03/15 09:12:31;;;;;;;35.33;21.95;;;;;;;;;;5066708;28;20047;-67
2022/03/15 09:14:57;;;;;;;36.58;23.92;;;;;;;;;;5032382;28;20045;-67
2022/03/15 09:17:24;;;;;;;32.42;22.90;;;;;;;;;;5066893;28;20063;-67
2022/03/15 09:19:53;;;;;;;32.95;20.83;;;;;;;;;;5049089;28;20507;-67
2022/03/15 09:22:19;;;;;;;34.70;22.50;;;;;;;;;;5066570;28;20029;-67
2022/03/15 09:24:45;;;;;;;35.47;22.92;;;;;;;;;;5068009;28;20063;-67
2022/03/15 09:27:12;;;;;;;29.38;20.58;;;;;;;;;;5066869;28;20048;-67
2022/03/15 09:29:39;;;;;;;31.55;21.20;;;;;;;;;;5067554;28;20049;-67
2022/03/15 09:32:08;;;;;;;31.95;21.70;;;;;;;;;;5065813;28;20048;-67
2022/03/15 09:34:36;;;;;;;30.50;21.10;;;;;;;;;;5067432;28;20455;-67
2022/03/15 09:37:02;;;;;;;29.48;19.40;;;;;;;;;;5066044;28;20057;-67
2022/03/15 09:39:29;;;;;;;29.08;20.25;;;;;;;;;;5063666;28;20036;-67
2022/03/15 09:41:56;;;;;;;33.28;20.92;;;;;;;;;;5067130;28;20028;-67
2022/03/15 09:44:26;;;;;;;28.10;18.48;;;;;;;;;;5065695;28;20040;-67
2022/03/15 09:46:53;;;;;;;33.15;19.92;;;;;;;;;;5064566;28;20040;-67
2022/03/15 09:49:20;;;;;;;29.33;21.10;;;;;;;;;;5067011;28;20033;-67
2022/03/15 09:51:47;;;;;;;31.02;19.42;;;;;;;;;;5046359;28;20040;-67
2022/03/15 09:54:13;;;;;;;29.90;20.33;;;;;;;;;;5064840;28;20043;-67
2022/03/15 09:56:40;;;;;;;31.02;20.25;;;;;;;;;;5066553;28;20056;-67
2022/03/15 09:59:17;;;;;;;30.13;19.05;;;;;;;;;;5046572;28;20087;-67
2022/03/15 10:01:43;;;;;;;34.78;20.45;;;;;;;;;;5047426;28;20044;-67
2022/03/15 10:04:10;;;;;;;29.92;18.55;;;;;;;;;;5065335;28;20093;-67
2022/03/15 10:06:39;;;;;;;29.02;19.58;;;;;;;;;;5046854;28;20404;-67
2022/03/15 10:09:06;;;;;;;28.30;19.02;;;;;;;;;;5047396;28;20469;-67
2022/03/15 10:11:32;;;;;;;31.67;18.88;;;;;;;;;;5065447;28;20123;-67
2022/03/15 10:13:59;;;;;;;29.05;17.83;;;;;;;;;;5047122;28;20488;-67
2022/03/15 10:16:32;;;;;;;33.80;19.85;;;;;;;;;;5063915;28;20048;-67
2022/03/15 10:18:58;;;;;;;28.52;18.83;;;;;;;;;;5065160;28;20086;-67
2022/03/15 10:21:25;;;;;;;26.27;18.33;;;;;;;;;;5065706;28;20114;-67
2022/03/15 10:23:55;;;;;;;29.25;18.88;;;;;;;;;;5047198;28;20114;-66
2022/03/15 10:26:28;;;;;;;33.90;19.50;;;;;;;;;;5047493;28;20042;-67
2022/03/15 10:28:56;;;;;;;25.63;18.08;;;;;;;;;;5065637;28;20041;-67
2022/03/15 10:31:23;;;;;;;25.23;18.23;;;;;;;;;;5064902;28;20044;-67
2022/03/15 10:33:50;;;;;;;25.75;17.52;;;;;;;;;;5065802;28;20072;-67
2022/03/15 10:36:17;;;;;;;27.40;17.48;;;;;;;;;;5048215;28;20122;-67
2022/03/15 10:38:48;;;;;;;28.02;17.17;;;;;;;;;;5047646;28;20056;-67
2022/03/15 10:41:15;;;;;;;26.73;17.17;;;;;;;;;;5066709;28;20040;-67
2022/03/15 10:43:41;;;;;;;28.80;17.27;;;;;;;;;;5064807;28;20088;-67
2022/03/15 10:46:09;;;;;;;25.85;17.48;;;;;;;;;;5066083;28;20075;-67
2022/03/15 10:48:36;;;;;;;25.10;16.67;;;;;;;;;;5065489;28;20048;-67
2022/03/15 10:51:03;;;;;;;30.92;17.50;;;;;;;;;;5048165;28;20052;-67
2022/03/15 10:53:46;;;;;;;28.70;17.33;;;;;;;;;;5065196;28;20512;-67
2022/03/15 10:56:13;;;;;;;27.42;17.55;;;;;;;;;;5047142;28;20130;-68
2022/03/15 10:58:47;;;;;;;26.85;16.92;;;;;;;;;;5046661;28;20098;-67
2022/03/15 11:01:13;;;;;;;25.02;16.80;;;;;;;;;;5065978;28;20044;-67
2022/03/15 11:03:39;;;;;;;28.60;16.27;;;;;;;;;;5048216;28;20052;-67
2022/03/15 11:06:08;;;;;;;28.77;16.65;;;;;;;;;;5065574;28;20043;-67
2022/03/15 11:08:36;;;;;;;22.55;14.65;;;;;;;;;;5065863;28;20505;-67
2022/03/15 11:11:06;;;;;;;22.77;14.25;;;;;;;;;;5046916;28;20040;-67
2022/03/15 11:13:32;;;;;;;22.60;14.02;;;;;;;;;;5065602;28;20052;-67
2022/03/15 11:15:59;;;;;;;23.40;14.55;;;;;;;;;;5065895;28;20127;-67
2022/03/15 11:18:29;;;;;;;19.33;13.88;;;;;;;;;;5046344;28;20040;-67
2022/03/15 11:20:58;;;;;;;19.98;13.02;;;;;;;;;;5048125;28;20071;-67
2022/03/15 11:23:25;;;;;;;21.45;13.80;;;;;;;;;;5065220;28;20096;-67
2022/03/15 11:26:04;;;;;;;25.38;14.05;;;;;;;;;;5046585;28;20056;-67
2022/03/15 11:28:31;;;;;;;24.73;14.45;;;;;;;;;;5047947;28;20032;-67
2022/03/15 11:30:58;;;;;;;25.05;14.65;;;;;;;;;;5065139;28;20117;-68
2022/03/15 11:33:25;;;;;;;23.10;14.23;;;;;;;;;;5030189;28;20101;-67
2022/03/15 11:35:51;;;;;;;26.30;14.02;;;;;;;;;;5065535;28;20084;-67
2022/03/15 11:38:18;;;;;;;22.33;12.90;;;;;;;;;;5046295;28;20044;-67
2022/03/15 11:40:45;;;;;;;18.50;12.65;;;;;;;;;;5063845;28;20044;-68
2022/03/15 11:43:14;;;;;;;20.67;13.75;;;;;;;;;;5064982;28;20056;-67
2022/03/15 11:45:43;;;;;;;20.55;13.70;;;;;;;;;;5065163;28;20510;-67
2022/03/15 11:48:09;;;;;;;23.35;13.70;;;;;;;;;;5046020;28;20123;-67
2022/03/15 11:50:38;;;;;;;20.67;13.68;;;;;;;;;;5045593;28;20127;-67
2022/03/15 11:53:23;;;;;;;21.83;13.52;;;;;;;;;;5064694;28;20067;-67
2022/03/15 11:55:52;;;;;;;20.42;13.52;;;;;;;;;;5063706;28;20053;-67
2022/03/15 11:58:22;;;;;;;22.83;13.75;;;;;;;;;;5064560;28;20040;-67
2022/03/15 12:00:49;;;;;;;20.60;13.77;;;;;;;;;;5063557;28;20443;-67
2022/03/15 12:03:18;;;;;;;19.67;13.13;;;;;;;;;;5047854;28;20068;-68
2022/03/15 12:05:52;;;;;;;21.42;13.20;;;;;;;;;;5064234;28;20061;-67
2022/03/15 12:08:23;;;;;;;21.48;13.10;;;;;;;;;;5064179;28;20028;-67
2022/03/15 12:11:05;;;;;;;21.08;13.02;;;;;;;;;;5046093;28;20041;-67
2022/03/15 12:13:39;;;;;;;16.33;11.07;;;;;;;;;;5064736;28;20047;-67
2022/03/15 12:16:11;;;;;;;17.63;12.02;;;;;;;;;;5045637;28;20098;-67
2022/03/15 12:18:48;;;;;;;18.38;12.05;;;;;;;;;;5061821;28;20036;-67
2022/03/15 12:21:15;;;;;;;18.77;12.45;;;;;;;;;;5064122;28;20132;-67
2022/03/15 12:23:48;;;;;;;21.65;12.75;;;;;;;;;;5064217;28;20548;-67
2022/03/15 12:26:21;;;;;;;20.83;12.07;;;;;;;;;;5046884;28;20048;-67
2022/03/15 12:28:55;;;;;;;16.08;11.52;;;;;;;;;;5064790;28;20511;-67
2022/03/15 12:31:31;;;;;;;20.55;12.15;;;;;;;;;;5065139;28;21005;-67
2022/03/15 12:34:05;;;;;;;18.95;12.68;;;;;;;;;;5065977;28;20481;-67
2022/03/15 12:36:41;;;;;;;23.58;14.00;;;;;;;;;;5049249;28;20050;-67
2022/03/15 12:39:09;;;;;;;18.10;12.82;;;;;;;;;;5051204;28;20069;-67
2022/03/15 12:41:35;;;;;;;18.42;12.95;;;;;;;;;;5069587;28;20043;-67
2022/03/15 12:44:02;;;;;;;17.60;12.25;;;;;;;;;;5070175;28;20047;-67
2022/03/15 12:46:30;;;;;;;19.27;11.93;;;;;;;;;;5051605;28;20485;-67
2022/03/15 12:49:04;;;;;;;21.63;12.68;;;;;;;;;;5068534;28;20080;-67
2022/03/15 12:51:38;;;;;;;21.73;12.45;;;;;;;;;;5053080;28;20182;-67
2022/03/15 12:54:05;;;;;;;22.40;13.02;;;;;;;;;;5052125;28;20048;-67
2022/03/15 12:56:32;;;;;;;19.80;12.27;;;;;;;;;;5051143;28;20171;-67
2022/03/15 12:58:58;;;;;;;18.35;12.57;;;;;;;;;;5068221;28;20048;-67
2022/03/15 13:01:26;;;;;;;16.77;12.00;;;;;;;;;;5068938;28;20115;-67
2022/03/15 13:03:54;;;;;;;19.58;11.85;;;;;;;;;;5069949;28;20056;-67
2022/03/15 13:06:21;;;;;;;21.52;12.13;;;;;;;;;;5069118;28;20040;-67
2022/03/15 13:08:55;;;;;;;15.90;10.45;;;;;;;;;;5070196;28;20055;-67
2022/03/15 13:11:21;;;;;;;17.98;11.75;;;;;;;;;;5069218;28;20043;-67
2022/03/15 13:13:47;;;;;;;16.73;10.25;;;;;;;;;;5070164;28;20048;-67
2022/03/15 13:16:14;;;;;;;16.52;10.65;;;;;;;;;;5068511;28;20044;-67
2022/03/15 13:18:41;;;;;;;15.80;9.90;;;;;;;;;;5066918;28;20136;-67
2022/03/15 13:21:09;;;;;;;17.13;10.77;;;;;;;;;;5070022;28;20041;-67
2022/03/15 13:23:37;;;;;;;20.10;10.60;;;;;;;;;;5068812;28;20076;-67
2022/03/15 13:26:10;;;;;;;12.95;8.23;;;;;;;;;;5051276;28;20500;-67
2022/03/15 13:28:40;;;;;;;13.93;8.52;;;;;;;;;;5050676;28;20046;-67
2022/03/15 13:31:07;;;;;;;17.73;8.18;;;;;;;;;;5051815;28;20508;-67
2022/03/15 13:33:40;;;;;;;13.15;7.78;;;;;;;;;;5047759;28;20044;-67
2022/03/15 13:36:15;;;;;;;16.23;8.13;;;;;;;;;;5068871;28;20063;-67
2022/03/15 13:38:48;;;;;;;16.13;8.45;;;;;;;;;;5068746;28;20091;-67
2022/03/15 13:41:15;;;;;;;11.85;7.45;;;;;;;;;;5068833;28;20056;-67
2022/03/15 13:43:43;;;;;;;16.33;7.45;;;;;;;;;;5051190;28;20064;-67
2022/03/15 13:46:10;;;;;;;14.75;8.23;;;;;;;;;;5050216;28;20045;-67
2022/03/15 13:48:41;;;;;;;13.48;7.15;;;;;;;;;;5067558;28;20040;-67
2022/03/15 13:51:12;;;;;;;15.10;8.02;;;;;;;;;;5068706;28;20044;-67
2022/03/15 13:53:42;;;;;;;16.50;8.13;;;;;;;;;;5051023;28;20052;-67
2022/03/15 13:56:09;;;;;;;10.65;7.63;;;;;;;;;;5051629;28;20043;-67
2022/03/15 13:58:35;;;;;;;14.93;7.85;;;;;;;;;;5051613;28;20053;-67
2022/03/15 14:01:03;;;;;;;15.05;7.30;;;;;;;;;;5069163;28;20504;-67
2022/03/15 14:03:30;;;;;;;12.68;7.25;;;;;;;;;;5050494;28;20137;-68
2022/03/15 14:06:00;;;;;;;14.05;7.00;;;;;;;;;;5069561;28;20036;-67
2022/03/15 14:08:26;;;;;;;10.57;6.55;;;;;;;;;;5051445;28;20041;-67
2022/03/15 14:10:54;;;;;;;14.32;7.38;;;;;;;;;;5051858;28;20038;-67
2022/03/15 14:13:25;;;;;;;13.60;7.57;;;;;;;;;;5070520;28;20043;-67
2022/03/15 14:15:59;;;;;;;17.15;7.95;;;;;;;;;;5052322;28;20044;-67
2022/03/15 14:18:26;;;;;;;14.30;7.00;;;;;;;;;;5069918;28;20056;-67
2022/03/15 14:20:52;;;;;;;12.55;7.38;;;;;;;;;;5052475;28;20044;-67
2022/03/15 14:23:18;;;;;;;13.13;7.78;;;;;;;;;;5069331;28;20036;-67